Time;durP1;ratioP1;P1;durP2;ratioP2;P2;SDS_P1;SDS_P2;PMS_P1;PMS_P2;Temp;Humidity;BMP_temperature;BMP_pressure;BME280_temperature;BME280_humidity;BME280_pressure;Samples;Min_cycle;Max_cycle;Signal;HPM_P1;HPM_P2
2023/12/06 00:00:25;;;;;;;9.83;6.43;;;5.60;99.90;;;;;;5064064;28;20235;-66
2023/12/06 00:02:54;;;;;;;10.93;6.60;;;5.60;99.90;;;;;;5074439;28;20205;-65
2023/12/06 00:05:19;;;;;;;11.23;6.30;;;5.50;99.90;;;;;;5057096;28;20208;-66
2023/12/06 00:07:45;;;;;;;9.17;6.23;;;5.50;99.90;;;;;;5062405;28;20219;-65
2023/12/06 00:10:13;;;;;;;11.33;6.83;;;5.50;99.90;;;;;;5057564;28;20192;-66
2023/12/06 00:12:38;;;;;;;12.37;6.93;;;5.50;99.90;;;;;;5059434;28;20197;-66
2023/12/06 00:15:07;;;;;;;10.10;6.50;;;5.50;99.90;;;;;;5071824;28;20211;-66
2023/12/06 00:17:32;;;;;;;11.10;6.73;;;5.50;99.90;;;;;;5060841;28;20184;-65
2023/12/06 00:19:58;;;;;;;11.23;6.93;;;5.60;99.90;;;;;;5059660;28;20247;-66
2023/12/06 00:22:23;;;;;;;10.27;6.73;;;5.50;99.90;;;;;;5060164;28;20295;-67
2023/12/06 00:24:53;;;;;;;12.10;6.87;;;5.50;99.90;;;;;;5048940;28;20198;-66
2023/12/06 00:27:22;;;;;;;13.80;7.80;;;5.50;99.90;;;;;;5072835;28;20231;-66
2023/12/06 00:29:47;;;;;;;12.37;7.70;;;5.50;99.90;;;;;;5061815;28;20184;-66
2023/12/06 00:32:13;;;;;;;11.87;7.23;;;5.50;99.90;;;;;;5074146;28;20203;-65
2023/12/06 00:34:39;;;;;;;11.60;7.07;;;5.50;99.90;;;;;;5061707;28;20205;-66
2023/12/06 00:37:06;;;;;;;14.50;8.33;;;5.50;99.90;;;;;;5060542;28;20211;-67
2023/12/06 00:39:34;;;;;;;17.17;9.00;;;5.50;99.90;;;;;;5075863;28;20201;-67
2023/12/06 00:42:01;;;;;;;15.80;9.80;;;5.50;99.90;;;;;;5065081;28;20180;-67
2023/12/06 00:44:28;;;;;;;19.90;10.80;;;5.50;99.90;;;;;;5077322;28;20168;-66
2023/12/06 00:46:56;;;;;;;17.53;9.40;;;5.50;99.90;;;;;;5060975;28;20173;-67
2023/12/06 00:49:24;;;;;;;19.13;10.60;;;5.50;99.90;;;;;;5070852;28;20172;-67
2023/12/06 00:51:49;;;;;;;16.73;9.13;;;5.40;99.90;;;;;;5060679;28;20201;-66
2023/12/06 00:54:15;;;;;;;14.73;8.70;;;5.40;99.90;;;;;;5081894;28;20180;-66
2023/12/06 00:56:41;;;;;;;14.93;8.53;;;5.40;99.90;;;;;;5061536;28;20724;-67
2023/12/06 00:59:08;;;;;;;13.47;8.10;;;5.30;99.90;;;;;;5076625;28;20181;-66
2023/12/06 01:01:39;;;;;;;15.93;9.10;;;5.30;99.90;;;;;;5078009;28;20177;-66
2023/12/06 01:04:04;;;;;;;14.53;8.47;;;5.30;99.90;;;;;;5062382;28;20212;-66
2023/12/06 01:06:30;;;;;;;14.80;9.27;;;5.30;99.90;;;;;;5060087;28;20268;-66
2023/12/06 01:08:56;;;;;;;20.33;11.03;;;5.30;99.90;;;;;;5060938;28;20172;-66
2023/12/06 01:11:23;;;;;;;18.27;11.33;;;5.30;99.90;;;;;;5061136;28;20173;-65
2023/12/06 01:13:49;;;;;;;17.47;9.83;;;5.30;99.90;;;;;;5057684;28;20254;-66
2023/12/06 01:16:17;;;;;;;15.60;9.20;;;5.20;99.90;;;;;;5061258;28;20201;-66
2023/12/06 01:18:45;;;;;;;14.87;9.27;;;5.20;99.90;;;;;;5073785;28;20187;-66
2023/12/06 01:21:11;;;;;;;16.30;9.93;;;5.20;99.90;;;;;;5059971;28;20196;-66
2023/12/06 01:23:38;;;;;;;14.03;8.80;;;5.10;99.90;;;;;;5062321;28;20204;-66
2023/12/06 01:26:04;;;;;;;16.03;9.77;;;5.10;99.90;;;;;;5062733;28;20192;-66
2023/12/06 01:28:30;;;;;;;16.97;10.07;;;5.10;99.90;;;;;;5073350;28;20223;-66
2023/12/06 01:30:55;;;;;;;14.30;8.93;;;5.10;99.90;;;;;;5080373;28;20176;-66
2023/12/06 01:33:21;;;;;;;13.03;7.83;;;5.10;99.90;;;;;;5076797;28;20295;-66
2023/12/06 01:35:46;;;;;;;11.53;7.33;;;5.10;99.90;;;;;;5081117;28;20168;-67
2023/12/06 01:38:12;;;;;;;10.33;6.33;;;5.10;99.90;;;;;;5075235;28;20191;-66
2023/12/06 01:40:40;;;;;;;8.93;6.20;;;5.00;99.90;;;;;;5076385;28;20201;-66
2023/12/06 01:43:07;;;;;;;8.90;5.73;;;5.00;99.90;;;;;;5063067;28;20181;-65
2023/12/06 01:45:35;;;;;;;8.53;5.53;;;5.00;99.90;;;;;;5059681;28;20185;-66
2023/12/06 01:48:04;;;;;;;8.30;5.30;;;4.90;99.90;;;;;;5071127;28;20204;-66
2023/12/06 01:50:32;;;;;;;9.57;6.30;;;4.90;99.90;;;;;;5059741;28;20180;-65
2023/12/06 01:52:59;;;;;;;8.33;5.77;;;4.90;99.90;;;;;;5059770;28;20231;-66
2023/12/06 01:55:27;;;;;;;8.17;5.63;;;4.80;99.90;;;;;;5065879;28;20242;-65
2023/12/06 01:57:55;;;;;;;8.37;5.60;;;4.80;99.90;;;;;;5066586;28;20180;-66
2023/12/06 02:00:24;;;;;;;9.77;6.73;;;4.80;99.90;;;;;;5051983;28;20197;-66
2023/12/06 02:02:50;;;;;;;11.20;7.10;;;4.70;99.90;;;;;;5072201;28;20181;-65
2023/12/06 02:05:16;;;;;;;11.77;6.97;;;4.70;99.90;;;;;;5068335;28;20278;-66
2023/12/06 02:07:45;;;;;;;10.63;7.10;;;4.70;99.90;;;;;;5060701;28;20211;-65
2023/12/06 02:10:11;;;;;;;11.57;7.13;;;4.60;99.90;;;;;;5061421;28;20205;-65
2023/12/06 02:12:41;;;;;;;11.07;7.43;;;4.60;99.90;;;;;;5075965;28;20204;-64
2023/12/06 02:15:08;;;;;;;14.10;8.97;;;4.60;99.90;;;;;;5076998;28;20441;-66
2023/12/06 02:17:37;;;;;;;18.90;11.23;;;4.60;99.90;;;;;;5057233;28;20196;-65
2023/12/06 02:20:04;;;;;;;13.83;9.40;;;4.60;99.90;;;;;;5059315;28;20177;-65
2023/12/06 02:22:32;;;;;;;17.23;10.67;;;4.50;99.90;;;;;;5064834;28;20271;-66
2023/12/06 02:25:04;;;;;;;15.87;10.47;;;4.50;99.90;;;;;;5058925;28;20204;-66
2023/12/06 02:27:30;;;;;;;17.43;10.17;;;4.40;99.90;;;;;;5061737;28;20275;-65
2023/12/06 02:29:56;;;;;;;15.00;10.17;;;4.40;99.90;;;;;;5058546;28;20315;-65
2023/12/06 02:32:22;;;;;;;17.23;10.30;;;4.40;99.90;;;;;;5058948;28;20203;-65
2023/12/06 02:34:50;;;;;;;15.40;9.60;;;4.40;99.90;;;;;;5074427;28;20255;-65
2023/12/06 02:37:19;;;;;;;16.93;10.00;;;4.30;99.90;;;;;;5059028;28;20185;-65
2023/12/06 02:39:50;;;;;;;18.30;11.20;;;4.30;99.90;;;;;;5074973;28;20440;-65
2023/12/06 02:42:16;;;;;;;16.97;10.60;;;4.30;99.90;;;;;;5057750;28;20197;-65
2023/12/06 02:44:42;;;;;;;16.00;10.57;;;4.20;99.90;;;;;;5058352;28;20181;-65
2023/12/06 02:47:07;;;;;;;15.70;9.30;;;4.20;99.90;;;;;;5059343;28;20204;-65
2023/12/06 02:49:35;;;;;;;17.60;11.33;;;4.20;99.90;;;;;;5064693;28;20204;-65
2023/12/06 02:52:03;;;;;;;17.23;11.03;;;4.20;99.90;;;;;;5055162;28;20269;-65
2023/12/06 02:54:29;;;;;;;15.47;10.30;;;4.20;99.90;;;;;;5060786;28;20169;-65
2023/12/06 02:56:55;;;;;;;13.07;8.97;;;4.10;99.90;;;;;;5070204;28;20177;-65
2023/12/06 02:59:20;;;;;;;16.77;10.77;;;4.10;99.90;;;;;;5046759;28;20169;-66
2023/12/06 03:01:50;;;;;;;17.30;10.73;;;4.10;99.90;;;;;;5051501;28;20223;-66
2023/12/06 03:04:16;;;;;;;22.00;13.93;;;4.10;99.90;;;;;;5058701;28;20187;-66
2023/12/06 03:06:42;;;;;;;19.70;13.63;;;4.10;99.90;;;;;;5074512;28;20196;-66
2023/12/06 03:09:08;;;;;;;22.30;14.13;;;4.10;99.90;;;;;;5071310;28;20237;-66
2023/12/06 03:11:33;;;;;;;20.27;13.77;;;4.00;99.90;;;;;;5071454;28;20192;-66
2023/12/06 03:14:01;;;;;;;21.07;13.83;;;3.90;99.90;;;;;;5074228;28;20200;-66
2023/12/06 03:16:26;;;;;;;20.57;13.30;;;3.90;99.90;;;;;;5057639;28;20209;-66
2023/12/06 03:18:54;;;;;;;21.60;14.30;;;4.00;99.90;;;;;;5057879;28;20216;-65
2023/12/06 03:21:22;;;;;;;22.03;14.13;;;3.80;99.90;;;;;;5062782;28;20192;-66
2023/12/06 03:23:48;;;;;;;19.60;12.53;;;3.80;99.90;;;;;;5066076;28;20203;-66
2023/12/06 03:26:13;;;;;;;19.80;12.97;;;3.80;99.90;;;;;;5049070;28;20358;-65
2023/12/06 03:28:41;;;;;;;23.47;15.27;;;3.80;99.90;;;;;;5067614;28;20184;-66
2023/12/06 03:31:08;;;;;;;24.47;15.00;;;3.70;99.90;;;;;;5073435;28;20197;-66
2023/12/06 03:33:33;;;;;;;30.20;17.77;;;3.70;99.90;;;;;;5057046;28;20241;-66
2023/12/06 03:35:59;;;;;;;31.33;18.27;;;3.70;99.90;;;;;;5051618;28;20199;-66
2023/12/06 03:38:24;;;;;;;26.20;16.97;;;3.70;99.90;;;;;;5062566;28;20193;-65
2023/12/06 03:40:50;;;;;;;28.10;17.60;;;3.70;99.90;;;;;;5073772;28;20172;-65
2023/12/06 03:43:18;;;;;;;25.40;15.63;;;3.60;99.90;;;;;;5053674;28;20177;-65
2023/12/06 03:45:48;;;;;;;24.87;15.03;;;3.70;99.90;;;;;;5057071;28;20188;-65
2023/12/06 03:48:16;;;;;;;37.37;22.73;;;3.70;99.90;;;;;;5056343;28;20193;-66
2023/12/06 03:50:47;;;;;;;32.80;19.97;;;3.70;99.90;;;;;;5057131;28;20227;-65
2023/12/06 03:53:15;;;;;;;31.13;19.00;;;3.70;99.90;;;;;;5069122;28;20230;-66
2023/12/06 03:55:40;;;;;;;35.30;21.03;;;3.70;99.90;;;;;;5073408;28;20199;-67
2023/12/06 03:58:06;;;;;;;33.00;19.87;;;3.70;99.90;;;;;;5074047;28;20177;-65
2023/12/06 04:00:34;;;;;;;28.70;18.87;;;3.70;99.90;;;;;;5066699;28;20264;-65
2023/12/06 04:03:00;;;;;;;29.77;17.80;;;3.70;99.90;;;;;;5069144;28;20208;-65
2023/12/06 04:05:26;;;;;;;26.10;16.07;;;3.70;99.90;;;;;;5063933;28;20218;-66
2023/12/06 04:07:54;;;;;;;31.27;18.40;;;3.70;99.90;;;;;;5077804;28;20180;-65
2023/12/06 04:10:19;;;;;;;31.67;19.43;;;3.70;99.90;;;;;;5071758;28;20205;-66
2023/12/06 04:12:45;;;;;;;27.83;17.17;;;3.70;99.90;;;;;;5059678;28;20204;-66
2023/12/06 04:15:13;;;;;;;24.30;16.53;;;3.70;99.90;;;;;;5041841;28;20173;-66
2023/12/06 04:17:41;;;;;;;27.80;16.43;;;3.70;99.90;;;;;;5057219;28;20183;-66
2023/12/06 04:20:10;;;;;;;23.80;15.53;;;3.80;99.90;;;;;;5069119;28;20169;-65
2023/12/06 04:22:38;;;;;;;24.00;15.37;;;3.80;99.90;;;;;;5057444;28;20252;-66
2023/12/06 04:25:04;;;;;;;20.77;14.50;;;3.80;99.90;;;;;;5054108;28;20176;-66
2023/12/06 04:27:30;;;;;;;20.53;13.43;;;3.80;99.90;;;;;;5055353;28;20206;-65
2023/12/06 04:29:55;;;;;;;24.20;15.73;;;3.70;99.90;;;;;;5076494;28;20183;-66
2023/12/06 04:32:25;;;;;;;21.00;15.03;;;3.80;99.90;;;;;;5060506;28;20222;-66
2023/12/06 04:34:55;;;;;;;19.73;13.70;;;3.80;99.90;;;;;;5073617;28;20289;-66
2023/12/06 04:37:21;;;;;;;17.83;12.10;;;3.80;99.90;;;;;;5057357;28;20199;-65
2023/12/06 04:39:47;;;;;;;16.87;11.63;;;3.70;99.90;;;;;;5057151;28;20291;-66
2023/12/06 04:42:16;;;;;;;17.17;11.33;;;3.70;99.90;;;;;;5057687;28;20193;-68
2023/12/06 04:44:41;;;;;;;17.00;11.80;;;3.70;99.90;;;;;;5056742;28;20180;-66
2023/12/06 04:47:07;;;;;;;18.33;12.53;;;3.70;99.90;;;;;;5040691;28;20207;-66
2023/12/06 04:49:33;;;;;;;17.03;12.30;;;3.70;99.90;;;;;;5056749;28;20208;-66
2023/12/06 04:52:00;;;;;;;19.40;12.83;;;3.70;99.90;;;;;;5073018;28;20471;-66
2023/12/06 04:54:28;;;;;;;17.80;11.90;;;3.70;99.90;;;;;;5056108;28;20176;-66
2023/12/06 04:56:56;;;;;;;18.13;12.20;;;3.80;99.90;;;;;;5056837;28;20191;-66
2023/12/06 04:59:22;;;;;;;18.90;13.00;;;3.80;99.90;;;;;;5056917;28;20196;-66
2023/12/06 05:01:48;;;;;;;19.30;12.40;;;3.80;99.90;;;;;;5056381;28;20240;-66
2023/12/06 05:04:18;;;;;;;23.17;14.67;;;3.80;99.90;;;;;;5076802;28;20184;-66
2023/12/06 05:06:44;;;;;;;21.33;13.90;;;3.80;99.90;;;;;;5073273;28;20523;-66
2023/12/06 05:09:10;;;;;;;19.07;12.97;;;3.80;99.90;;;;;;5049574;28;20187;-66
2023/12/06 05:11:36;;;;;;;19.90;12.53;;;3.80;99.90;;;;;;5073062;28;20281;-66
2023/12/06 05:14:04;;;;;;;18.90;12.63;;;3.80;99.90;;;;;;5071926;28;20244;-66
2023/12/06 05:16:32;;;;;;;20.50;13.30;;;3.80;99.90;;;;;;5075934;28;20196;-66
2023/12/06 05:18:59;;;;;;;18.57;12.67;;;3.90;99.90;;;;;;5073978;28;20184;-66
2023/12/06 05:21:27;;;;;;;18.10;11.60;;;3.80;99.90;;;;;;5060976;28;20172;-68
2023/12/06 05:23:53;;;;;;;17.27;11.40;;;3.80;99.90;;;;;;5059029;28;20176;-66
2023/12/06 05:26:22;;;;;;;19.17;11.93;;;3.90;99.90;;;;;;5060495;28;20188;-66
2023/12/06 05:28:48;;;;;;;16.23;11.07;;;3.90;99.90;;;;;;5065780;28;20188;-66
2023/12/06 05:31:14;;;;;;;18.53;10.93;;;3.90;99.90;;;;;;5061941;28;20197;-66
2023/12/06 05:33:39;;;;;;;17.43;11.07;;;3.90;99.90;;;;;;5080335;28;20250;-66
2023/12/06 05:36:08;;;;;;;17.43;11.47;;;3.90;99.90;;;;;;5068047;28;20195;-66
2023/12/06 05:38:36;;;;;;;18.87;12.57;;;3.90;99.90;;;;;;5077137;28;20203;-66
2023/12/06 05:41:01;;;;;;;19.07;12.77;;;3.90;99.90;;;;;;5060487;28;20184;-66
2023/12/06 05:43:27;;;;;;;18.47;12.23;;;4.00;99.90;;;;;;5060084;28;20206;-66
2023/12/06 05:45:57;;;;;;;21.13;12.33;;;4.00;99.90;;;;;;5060410;28;20200;-65
2023/12/06 05:48:27;;;;;;;20.33;12.13;;;4.00;99.90;;;;;;5059631;28;20180;-66
2023/12/06 05:50:57;;;;;;;18.37;11.83;;;4.00;99.90;;;;;;5059042;28;20208;-66
2023/12/06 05:53:23;;;;;;;19.20;12.13;;;4.00;99.90;;;;;;5073523;28;20196;-65
2023/12/06 05:55:49;;;;;;;19.70;12.73;;;4.00;99.90;;;;;;5071785;28;20255;-66
2023/12/06 05:58:16;;;;;;;18.23;12.30;;;4.00;99.90;;;;;;5056963;28;20286;-66
2023/12/06 06:00:44;;;;;;;21.63;11.73;;;4.10;99.90;;;;;;5060319;28;20244;-66
2023/12/06 06:03:12;;;;;;;21.57;13.83;;;4.10;99.90;;;;;;5074492;28;20232;-66
2023/12/06 06:05:38;;;;;;;20.07;13.87;;;4.10;99.90;;;;;;5056739;28;20195;-66
2023/12/06 06:08:06;;;;;;;21.77;14.13;;;4.10;99.90;;;;;;5060297;28;20180;-66
2023/12/06 06:10:34;;;;;;;22.40;14.60;;;4.20;99.90;;;;;;5059840;28;20223;-66
2023/12/06 06:12:59;;;;;;;19.47;13.47;;;4.20;99.90;;;;;;5064112;28;20200;-66
2023/12/06 06:15:25;;;;;;;23.27;14.93;;;4.20;99.90;;;;;;5072284;28;20240;-67
2023/12/06 06:17:53;;;;;;;19.23;14.10;;;4.20;99.90;;;;;;5071970;28;20207;-67
2023/12/06 06:20:19;;;;;;;20.57;13.97;;;4.20;99.90;;;;;;5060031;28;20201;-67
2023/12/06 06:22:47;;;;;;;19.70;13.60;;;4.20;99.90;;;;;;5076001;28;20228;-66
2023/12/06 06:25:13;;;;;;;18.87;13.47;;;4.20;99.90;;;;;;5059349;28;20176;-66
2023/12/06 06:27:41;;;;;;;19.73;13.83;;;4.20;99.90;;;;;;5058478;28;20247;-66
2023/12/06 06:30:10;;;;;;;21.30;15.33;;;4.30;99.90;;;;;;5075971;28;20208;-65
2023/12/06 06:32:36;;;;;;;22.70;16.07;;;4.30;99.90;;;;;;5076073;28;20250;-65
2023/12/06 06:35:01;;;;;;;20.90;14.17;;;4.30;99.90;;;;;;5076157;28;20196;-66
2023/12/06 06:37:29;;;;;;;20.23;14.40;;;4.30;99.90;;;;;;5052275;28;20200;-65
2023/12/06 06:39:57;;;;;;;20.90;15.63;;;4.30;99.90;;;;;;5039167;28;20169;-65
2023/12/06 06:42:25;;;;;;;19.57;14.73;;;4.40;99.90;;;;;;5051295;28;20204;-65
2023/12/06 06:44:55;;;;;;;18.97;13.23;;;4.40;99.90;;;;;;5072114;28;20207;-64
2023/12/06 06:47:21;;;;;;;17.97;13.80;;;4.40;99.90;;;;;;5059149;28;20244;-66
2023/12/06 06:49:47;;;;;;;20.83;15.07;;;4.40;99.90;;;;;;5075437;28;20257;-66
2023/12/06 06:52:14;;;;;;;17.93;13.33;;;4.40;99.90;;;;;;5069113;28;20233;-66
2023/12/06 06:54:42;;;;;;;19.77;14.50;;;4.50;99.90;;;;;;5072074;28;20208;-65
2023/12/06 06:57:09;;;;;;;17.60;13.53;;;4.50;99.90;;;;;;5075235;28;20189;-66
2023/12/06 06:59:34;;;;;;;18.90;14.37;;;4.50;99.90;;;;;;5088392;28;20183;-66
2023/12/06 07:02:00;;;;;;;18.43;14.17;;;4.50;99.90;;;;;;5078645;28;20181;-66
2023/12/06 07:04:25;;;;;;;21.47;15.00;;;4.50;99.90;;;;;;5075474;28;20208;-67
2023/12/06 07:06:53;;;;;;;18.33;13.83;;;4.50;99.90;;;;;;5058849;28;20173;-66
2023/12/06 07:09:21;;;;;;;18.97;13.60;;;4.50;99.90;;;;;;5058628;28;20177;-66
2023/12/06 07:11:47;;;;;;;16.13;12.37;;;4.50;99.90;;;;;;5058675;28;20179;-67
2023/12/06 07:14:14;;;;;;;22.90;15.67;;;4.60;99.90;;;;;;5064063;28;20176;-66
2023/12/06 07:16:40;;;;;;;19.37;14.30;;;4.60;99.90;;;;;;5075128;28;20219;-67
2023/12/06 07:19:06;;;;;;;19.97;14.40;;;4.60;99.90;;;;;;5072504;28;20161;-65
2023/12/06 07:21:31;;;;;;;18.83;13.93;;;4.60;99.90;;;;;;5075438;28;20181;-66
2023/12/06 07:23:57;;;;;;;16.27;12.83;;;4.60;99.90;;;;;;5065980;28;20215;-66
2023/12/06 07:26:22;;;;;;;15.67;12.20;;;4.70;99.90;;;;;;5058376;28;20195;-66
2023/12/06 07:28:50;;;;;;;18.57;13.90;;;4.70;99.90;;;;;;5082000;28;20212;-66
2023/12/06 07:31:16;;;;;;;21.47;16.03;;;4.70;99.90;;;;;;5074682;28;20204;-66
2023/12/06 07:33:47;;;;;;;20.67;15.50;;;4.70;99.90;;;;;;5058392;28;20196;-66
2023/12/06 07:36:18;;;;;;;20.53;14.43;;;4.70;99.90;;;;;;5058101;28;20180;-66
2023/12/06 07:38:43;;;;;;;18.27;12.77;;;4.70;99.90;;;;;;5074081;28;20176;-66
2023/12/06 07:41:09;;;;;;;18.33;13.77;;;4.80;99.90;;;;;;5058164;28;20386;-67
2023/12/06 07:43:37;;;;;;;17.20;12.97;;;4.70;99.90;;;;;;5074682;28;20180;-67
2023/12/06 07:46:04;;;;;;;16.20;12.27;;;4.80;99.90;;;;;;5080268;28;20206;-67
2023/12/06 07:48:29;;;;;;;17.60;13.50;;;4.80;99.90;;;;;;5083570;28;20180;-67
2023/12/06 07:50:55;;;;;;;17.50;13.30;;;4.80;99.90;;;;;;5074762;28;20290;-66
2023/12/06 07:53:23;;;;;;;16.47;12.60;;;4.80;99.90;;;;;;5074532;28;20200;-67
2023/12/06 07:55:55;;;;;;;16.87;13.20;;;4.80;99.90;;;;;;5059053;28;20184;-67
2023/12/06 07:58:24;;;;;;;17.90;13.60;;;4.90;99.90;;;;;;5074212;28;20203;-67
2023/12/06 08:00:54;;;;;;;16.57;12.50;;;4.90;99.90;;;;;;5068055;28;20267;-67
2023/12/06 08:03:21;;;;;;;19.33;14.53;;;4.90;99.90;;;;;;5070361;28;20188;-67
2023/12/06 08:05:51;;;;;;;20.27;14.23;;;4.90;99.90;;;;;;5073423;28;20281;-67
2023/12/06 08:08:17;;;;;;;19.10;14.73;;;4.90;99.90;;;;;;5074667;28;20172;-67
2023/12/06 08:10:43;;;;;;;19.17;14.07;;;4.90;99.90;;;;;;5058420;28;20176;-67
2023/12/06 08:13:11;;;;;;;17.87;13.33;;;4.90;99.90;;;;;;5074307;28;20292;-68
2023/12/06 08:15:39;;;;;;;17.37;12.97;;;5.00;99.90;;;;;;5074541;28;20175;-66
2023/12/06 08:18:07;;;;;;;17.53;13.27;;;5.00;99.90;;;;;;5047804;28;20436;-66
2023/12/06 08:20:35;;;;;;;17.10;13.00;;;5.00;99.90;;;;;;5063071;28;20176;-66
2023/12/06 08:23:03;;;;;;;17.87;13.37;;;5.00;99.90;;;;;;5074465;28;20176;-67
2023/12/06 08:25:29;;;;;;;16.73;12.83;;;5.00;99.90;;;;;;5057866;28;20203;-67
2023/12/06 08:27:54;;;;;;;17.30;12.87;;;5.00;99.90;;;;;;5057392;28;20176;-67
2023/12/06 08:30:20;;;;;;;17.73;13.40;;;5.10;99.90;;;;;;5057354;28;20172;-67
2023/12/06 08:32:51;;;;;;;16.10;12.73;;;5.10;99.90;;;;;;5057132;28;20212;-67
2023/12/06 08:35:16;;;;;;;15.57;11.80;;;5.10;99.90;;;;;;5057526;28;20371;-67
2023/12/06 08:37:42;;;;;;;14.83;12.07;;;5.10;99.90;;;;;;5057223;28;20283;-67
2023/12/06 08:40:11;;;;;;;14.53;11.30;;;5.10;99.90;;;;;;5063006;28;20193;-67
2023/12/06 08:42:38;;;;;;;16.30;11.87;;;5.20;99.90;;;;;;5085461;28;20204;-68
2023/12/06 08:45:07;;;;;;;14.57;11.60;;;5.20;99.90;;;;;;5078901;28;20204;-66
2023/12/06 08:47:34;;;;;;;16.90;12.43;;;5.20;99.90;;;;;;5056221;28;20188;-67
2023/12/06 08:50:04;;;;;;;16.83;12.43;;;5.30;99.90;;;;;;5075238;28;20180;-67
2023/12/06 08:52:30;;;;;;;16.90;12.73;;;5.30;99.90;;;;;;5062634;28;20274;-67
2023/12/06 08:54:55;;;;;;;15.40;11.87;;;5.30;99.90;;;;;;5077211;28;20173;-67
2023/12/06 08:57:27;;;;;;;15.47;12.20;;;5.30;99.90;;;;;;5083659;28;20187;-67
2023/12/06 08:59:53;;;;;;;16.17;12.40;;;5.30;99.90;;;;;;5077757;28;20196;-67
2023/12/06 09:02:21;;;;;;;14.10;11.30;;;5.30;99.90;;;;;;5077647;28;20181;-67
2023/12/06 09:04:51;;;;;;;17.70;13.33;;;5.40;99.90;;;;;;5061015;28;20180;-65
2023/12/06 09:07:21;;;;;;;15.83;12.53;;;5.40;99.90;;;;;;5061105;28;20275;-67
2023/12/06 09:09:47;;;;;;;15.53;11.90;;;5.40;99.90;;;;;;5086867;28;20216;-65
2023/12/06 09:12:12;;;;;;;15.00;12.07;;;5.40;99.90;;;;;;5064125;28;20242;-66
2023/12/06 09:14:40;;;;;;;16.40;11.97;;;5.40;99.90;;;;;;5059978;28;20169;-67
2023/12/06 09:17:06;;;;;;;15.53;11.77;;;5.50;99.90;;;;;;5077427;28;20169;-67
2023/12/06 09:19:34;;;;;;;18.67;13.57;;;5.50;99.90;;;;;;5074575;28;20272;-67
2023/12/06 09:22:00;;;;;;;16.37;13.13;;;5.50;99.90;;;;;;5061183;28;20173;-67
2023/12/06 09:24:25;;;;;;;17.93;13.43;;;5.50;99.90;;;;;;5060780;28;20178;-66
2023/12/06 09:26:53;;;;;;;16.83;12.10;;;5.50;99.90;;;;;;5071728;28;20485;-67
2023/12/06 09:29:18;;;;;;;17.70;12.63;;;5.60;99.90;;;;;;5085483;28;20180;-66
2023/12/06 09:31:46;;;;;;;17.00;13.20;;;5.60;99.90;;;;;;5060662;28;20251;-65
2023/12/06 09:34:12;;;;;;;17.80;13.57;;;5.60;99.90;;;;;;5060167;28;20213;-66
2023/12/06 09:36:39;;;;;;;16.73;12.60;;;5.60;99.90;;;;;;5076285;28;20197;-66
2023/12/06 09:39:07;;;;;;;16.53;12.93;;;5.60;99.90;;;;;;5059932;28;20165;-65
2023/12/06 09:41:33;;;;;;;16.37;12.90;;;5.60;99.90;;;;;;5060177;28;20226;-65
2023/12/06 09:44:00;;;;;;;15.90;12.53;;;5.60;99.90;;;;;;5075529;28;20173;-65
2023/12/06 09:46:30;;;;;;;18.53;13.53;;;5.60;99.90;;;;;;5056675;28;20205;-65
2023/12/06 09:48:56;;;;;;;18.87;13.93;;;5.70;99.90;;;;;;5055836;28;20181;-65
2023/12/06 09:51:22;;;;;;;19.57;15.03;;;5.70;99.90;;;;;;5061970;28;20192;-66
2023/12/06 09:53:48;;;;;;;20.10;14.10;;;5.70;99.90;;;;;;5081646;28;20213;-66
2023/12/06 09:56:14;;;;;;;17.60;12.93;;;5.70;99.90;;;;;;5059795;28;20306;-66
2023/12/06 09:58:40;;;;;;;15.97;12.53;;;5.70;99.90;;;;;;5059359;28;20216;-65
2023/12/06 10:01:09;;;;;;;15.80;12.07;;;5.70;99.90;;;;;;5075490;28;20211;-66
2023/12/06 10:03:38;;;;;;;14.27;10.83;;;5.80;99.90;;;;;;5072718;28;20193;-66
2023/12/06 10:06:10;;;;;;;16.50;12.03;;;5.80;99.90;;;;;;5076169;28;20191;-66
2023/12/06 10:08:36;;;;;;;15.77;11.90;;;5.80;99.90;;;;;;5076210;28;20235;-66
2023/12/06 10:11:02;;;;;;;15.57;12.10;;;5.90;99.90;;;;;;5081300;28;20207;-66
2023/12/06 10:13:50;;;;;;;14.30;11.17;;;5.90;99.90;;;;;;5059539;28;20196;-67
2023/12/06 10:16:22;;;;;;;14.03;11.10;;;6.00;99.90;;;;;;5056576;28;20169;-67
2023/12/06 10:18:56;;;;;;;14.30;11.17;;;6.00;99.90;;;;;;5072813;28;20169;-67
2023/12/06 10:21:22;;;;;;;14.00;11.00;;;6.00;99.90;;;;;;5076177;28;20196;-66
2023/12/06 10:24:01;;;;;;;14.47;10.73;;;6.00;99.90;;;;;;5076108;28;20237;-66
2023/12/06 10:26:30;;;;;;;15.27;11.87;;;6.10;99.90;;;;;;5059223;28;20180;-66
2023/12/06 10:29:04;;;;;;;16.03;12.57;;;6.10;99.90;;;;;;5075620;28;20196;-67
2023/12/06 10:31:42;;;;;;;15.07;11.50;;;6.10;99.90;;;;;;5059350;28;20176;-67
2023/12/06 10:34:11;;;;;;;16.83;11.97;;;6.10;99.90;;;;;;5058818;28;20211;-66
2023/12/06 10:36:40;;;;;;;13.40;10.23;;;6.10;99.90;;;;;;5058827;28;20275;-66
2023/12/06 10:39:10;;;;;;;16.17;12.13;;;6.20;99.90;;;;;;5059076;28;20220;-66
2023/12/06 10:41:41;;;;;;;14.53;12.33;;;6.20;99.90;;;;;;5075436;28;20192;-67
2023/12/06 10:44:09;;;;;;;13.60;10.53;;;6.20;99.90;;;;;;5076132;28;20159;-67
2023/12/06 10:46:39;;;;;;;11.90;9.83;;;6.20;99.90;;;;;;5075583;28;20184;-67
2023/12/06 10:49:05;;;;;;;15.23;11.73;;;6.20;99.90;;;;;;5075581;28;20196;-66
2023/12/06 10:51:34;;;;;;;15.20;11.83;;;6.20;99.90;;;;;;5075393;28;20180;-67
2023/12/06 10:54:03;;;;;;;13.07;10.43;;;6.30;99.90;;;;;;5074822;28;20199;-66
2023/12/06 10:56:29;;;;;;;14.40;11.60;;;6.30;99.90;;;;;;5074300;28;20219;-66
2023/12/06 10:58:59;;;;;;;15.20;10.70;;;6.30;99.90;;;;;;5092287;28;20173;-66
2023/12/06 11:01:28;;;;;;;17.93;13.07;;;6.30;99.90;;;;;;5070231;28;20177;-66
2023/12/06 11:03:54;;;;;;;12.60;10.87;;;6.40;99.90;;;;;;5091073;28;20235;-67
2023/12/06 11:07:04;;;;;;;14.63;11.70;;;6.40;99.90;;;;;;5072030;28;20177;-67
2023/12/06 11:09:58;;;;;;;13.33;10.97;;;6.40;99.90;;;;;;5050796;28;20205;-66
2023/12/06 11:12:41;;;;;;;12.80;10.53;;;6.40;99.90;;;;;;5074861;28;20200;-67
2023/12/06 11:15:28;;;;;;;14.07;11.10;;;6.40;99.90;;;;;;5057539;28;20177;-66
2023/12/06 11:18:03;;;;;;;13.47;10.37;;;6.40;99.90;;;;;;5071626;28;20168;-69
2023/12/06 11:20:32;;;;;;;15.73;11.83;;;6.50;99.90;;;;;;5074828;28;20179;-67
2023/12/06 11:22:59;;;;;;;19.10;12.70;;;6.50;99.90;;;;;;5075905;28;20200;-67
2023/12/06 11:25:28;;;;;;;17.37;12.60;;;6.40;99.90;;;;;;5074717;28;20176;-67
2023/12/06 11:27:57;;;;;;;16.50;12.23;;;6.50;99.90;;;;;;5068948;28;20184;-68
2023/12/06 11:30:22;;;;;;;14.80;12.23;;;6.50;99.90;;;;;;5058016;28;20196;-68
2023/12/06 11:32:57;;;;;;;16.07;12.53;;;6.50;99.90;;;;;;5074612;28;20207;-66
2023/12/06 11:35:24;;;;;;;15.33;12.03;;;6.50;99.90;;;;;;5074685;28;20165;-66
2023/12/06 11:37:58;;;;;;;16.93;12.37;;;6.50;99.90;;;;;;5074744;28;20195;-67
2023/12/06 11:40:31;;;;;;;16.07;12.17;;;6.50;99.90;;;;;;5057888;28;20165;-67
2023/12/06 11:43:07;;;;;;;17.07;12.47;;;6.60;99.90;;;;;;5057795;28;20180;-67
2023/12/06 11:45:40;;;;;;;14.33;11.47;;;6.60;99.90;;;;;;5063856;28;20176;-67
2023/12/06 11:48:05;;;;;;;14.50;11.33;;;6.60;99.90;;;;;;5059033;28;20184;-67
2023/12/06 11:50:45;;;;;;;13.30;10.70;;;6.60;99.90;;;;;;5091689;28;20200;-67
2023/12/06 11:53:15;;;;;;;13.23;10.60;;;6.60;99.90;;;;;;5091256;28;20200;-67
2023/12/06 11:55:42;;;;;;;18.43;11.67;;;6.60;99.90;;;;;;5074815;28;20165;-67
2023/12/06 11:58:09;;;;;;;14.33;10.97;;;6.70;99.90;;;;;;5074488;28;20204;-67
2023/12/06 12:00:40;;;;;;;13.83;10.80;;;6.60;99.90;;;;;;5057767;28;20169;-68
2023/12/06 12:03:11;;;;;;;13.20;9.77;;;6.70;99.90;;;;;;5054763;28;20184;-68
2023/12/06 12:05:36;;;;;;;12.83;9.97;;;6.70;99.90;;;;;;5054951;28;20157;-68
2023/12/06 12:08:08;;;;;;;12.10;9.27;;;6.70;99.90;;;;;;5054463;28;20173;-67
2023/12/06 12:10:34;;;;;;;12.00;9.67;;;6.70;99.90;;;;;;5074461;28;20172;-67
2023/12/06 12:13:00;;;;;;;13.23;10.33;;;6.80;99.90;;;;;;5074427;28;20261;-67
2023/12/06 12:15:26;;;;;;;13.47;10.40;;;6.80;99.90;;;;;;5051037;28;20238;-67
2023/12/06 12:17:54;;;;;;;13.63;10.27;;;6.80;99.90;;;;;;5057747;28;20192;-67
2023/12/06 12:20:20;;;;;;;12.37;9.97;;;6.80;99.90;;;;;;5057552;28;20168;-67
2023/12/06 12:22:50;;;;;;;14.03;10.50;;;6.90;99.90;;;;;;5059118;28;20184;-69
2023/12/06 12:25:20;;;;;;;15.30;11.47;;;6.90;99.90;;;;;;5075928;28;20204;-68
2023/12/06 12:27:49;;;;;;;14.57;10.03;;;6.80;99.90;;;;;;5078324;28;20188;-67
2023/12/06 12:30:17;;;;;;;14.17;10.83;;;6.90;99.90;;;;;;5062576;28;20184;-66
2023/12/06 12:32:46;;;;;;;14.50;9.83;;;7.00;99.90;;;;;;5078764;28;20200;-66
2023/12/06 12:35:12;;;;;;;11.70;9.07;;;7.00;99.90;;;;;;5079083;28;20172;-67
2023/12/06 12:37:39;;;;;;;12.03;9.87;;;7.00;99.90;;;;;;5059295;28;20204;-67
2023/12/06 12:40:11;;;;;;;11.03;9.00;;;7.00;99.90;;;;;;5072204;28;20177;-67